OICI  Ilam  Airport

Ilam, Iran

Add Bookmark
ICAO OICI
IATA IIL
Type Airport
Status Operational
Latitude
33° 35' 11" N
33.586601
Longitude
46° 24' 17" E
46.404800
Local (DST + 5) UTC (GMT + 4)
Sep 1, 2015 06:35 Sep 1, 2015 14:05
Sunrise-Sunset Local UTC
Begin Civil Twilight 06:31 02:01
Sunrise 06:57 02:27
Sunset 07:51 15:21
End Civil Twilight 08:17 15:47
VFR
VFR
MVFR
MVFR
IFR
IFR
LIFR
LIFR
Unknown
Unavailable

Current Weather

METAR Observed
OICI 011300Z 28008KT 3000 DU NSC 30/M01 Q1014 A2997 Tue, Sep 1, 2015 @ 13:00 UTC
(1 Hour, 5 Minutes ago)
Wind Visibility Conditions
280° at 8 knots (15 kph) 2,993 m
  • Dust
Temperatures Readings Precipitation
Current Temp
30°C
86°F
Dewpoint
-1°C
30°F
Humidity 13%
Altimeter 29.94" Hg
Sea Level Pressure 1,014 mb
Field Elevation
1,343 m
4,406 ft
None Recorded
-
-

CheckWX.com is intended as a tool to help pilots better visualize weather data. It is not intended as a substitute for an official weather briefing obtained from a Flight Service Station. CheckWX.com does not meet the FAA requirements for an official pre-flight weather briefing. Therefore, it's important that pilots still call and obtain an official FSS pre-flight weather briefing.

© 2007-2015 CheckWX.com
14:05:59 UTC